CheckWX is a tool to help pilots better visualize weather data.  It is not intended as a substitute for an official pre-flight weather briefing.

05:10:24 UTC

OPRK TAF
Shaikh Zaid Airport
Rahim Yar Khan, Pakistan
TAF OPRK 232145Z 2400/2418 23005KT 4000 FU SCT120 TN09/2401Z TX24/2410Z PROB30 TEMPO 2401/2405 00000KT 2000 BR NSC

Feb-24@
00:00 UTC

Feb-24 @ 00:00 UTC

Feb-24@
18:00 UTC

Feb-24 @ 18:00 UTC

TAF OPRK 232145Z 2400/2418 23005KT 4000 FU SCT120 TN09/2401Z TX24/2410Z
Wind
  • 230° at 5 KTS
Conditions
Smoke
Cloud Levels
  • Scattered at 12,000' AGL

Feb-24@
01:00 UTC

Feb-24 @ 01:00 UTC

Feb-24@
05:00 UTC

Feb-24 @ 05:00 UTC

PROB30 TEMPO 2401/2405 00000KT 2000 BR NSC

Expired

Conditions
Mist
Cloud Levels
  • No significant clouds